sensor_id;sensor_type;location;lat;lon;timestamp;pressure;altitude;pressure_sealevel;temperature
10058;BMP180;5068;51.286;7.518;2022-08-19T00:01:00;99142.00;;;18.40
10058;BMP180;5068;51.286;7.518;2022-08-19T00:02:33;99150.00;;;18.40
10058;BMP180;5068;51.286;7.518;2022-08-19T00:04:10;99150.00;;;18.40
10058;BMP180;5068;51.286;7.518;2022-08-19T00:05:45;99150.00;;;18.30
10058;BMP180;5068;51.286;7.518;2022-08-19T00:07:19;99147.00;;;18.30
10058;BMP180;5068;51.286;7.518;2022-08-19T00:08:54;99157.00;;;18.30
10058;BMP180;5068;51.286;7.518;2022-08-19T00:10:28;99151.00;;;18.30
10058;BMP180;5068;51.286;7.518;2022-08-19T00:12:03;99154.00;;;18.30
10058;BMP180;5068;51.286;7.518;2022-08-19T00:13:36;99155.00;;;18.30
10058;BMP180;5068;51.286;7.518;2022-08-19T00:15:15;99156.00;;;18.20
10058;BMP180;5068;51.286;7.518;2022-08-19T00:16:49;99155.00;;;18.20
10058;BMP180;5068;51.286;7.518;2022-08-19T00:18:26;99158.00;;;18.20
10058;BMP180;5068;51.286;7.518;2022-08-19T00:20:00;99149.00;;;18.20
10058;BMP180;5068;51.286;7.518;2022-08-19T00:21:34;99154.00;;;18.30
10058;BMP180;5068;51.286;7.518;2022-08-19T00:23:10;99162.00;;;18.20
10058;BMP180;5068;51.286;7.518;2022-08-19T00:24:45;99160.00;;;18.20
10058;BMP180;5068;51.286;7.518;2022-08-19T00:26:22;99147.00;;;18.20
10058;BMP180;5068;51.286;7.518;2022-08-19T00:27:54;99147.00;;;18.20
10058;BMP180;5068;51.286;7.518;2022-08-19T00:29:28;99140.00;;;18.10
10058;BMP180;5068;51.286;7.518;2022-08-19T00:31:04;99142.00;;;18.10
10058;BMP180;5068;51.286;7.518;2022-08-19T00:32:39;99144.00;;;18.10
10058;BMP180;5068;51.286;7.518;2022-08-19T00:34:14;99142.00;;;18.10
10058;BMP180;5068;51.286;7.518;2022-08-19T00:35:48;99137.00;;;18.10
10058;BMP180;5068;51.286;7.518;2022-08-19T00:37:27;99131.00;;;18.10
10058;BMP180;5068;51.286;7.518;2022-08-19T00:39:01;99143.00;;;18.10
10058;BMP180;5068;51.286;7.518;2022-08-19T00:40:36;99136.00;;;18.00
10058;BMP180;5068;51.286;7.518;2022-08-19T00:42:09;99137.00;;;18.00
10058;BMP180;5068;51.286;7.518;2022-08-19T00:43:42;99141.00;;;18.00
10058;BMP180;5068;51.286;7.518;2022-08-19T00:45:19;99138.00;;;17.90
10058;BMP180;5068;51.286;7.518;2022-08-19T00:46:55;99143.00;;;17.90
10058;BMP180;5068;51.286;7.518;2022-08-19T00:48:33;99135.00;;;17.90
10058;BMP180;5068;51.286;7.518;2022-08-19T00:50:09;99135.00;;;17.80
10058;BMP180;5068;51.286;7.518;2022-08-19T00:51:45;99137.00;;;17.80
10058;BMP180;5068;51.286;7.518;2022-08-19T00:53:24;99137.00;;;17.80
10058;BMP180;5068;51.286;7.518;2022-08-19T00:55:00;99136.00;;;17.70
10058;BMP180;5068;51.286;7.518;2022-08-19T00:56:36;99137.00;;;17.70
10058;BMP180;5068;51.286;7.518;2022-08-19T00:58:18;99141.00;;;17.70
10058;BMP180;5068;51.286;7.518;2022-08-19T00:59:55;99140.00;;;17.70
10058;BMP180;5068;51.286;7.518;2022-08-19T01:01:39;99137.00;;;17.70
10058;BMP180;5068;51.286;7.518;2022-08-19T01:03:20;99138.00;;;17.70
10058;BMP180;5068;51.286;7.518;2022-08-19T01:04:57;99146.00;;;17.80
10058;BMP180;5068;51.286;7.518;2022-08-19T01:06:38;99147.00;;;17.70
10058;BMP180;5068;51.286;7.518;2022-08-19T01:08:19;99148.00;;;17.70
10058;BMP180;5068;51.286;7.518;2022-08-19T01:09:57;99148.00;;;17.70
10058;BMP180;5068;51.286;7.518;2022-08-19T01:11:40;99148.00;;;17.60
10058;BMP180;5068;51.286;7.518;2022-08-19T01:13:21;99145.00;;;17.60
10058;BMP180;5068;51.286;7.518;2022-08-19T01:14:59;99139.00;;;17.60
10058;BMP180;5068;51.286;7.518;2022-08-19T01:16:37;99144.00;;;17.60
10058;BMP180;5068;51.286;7.518;2022-08-19T01:18:16;99138.00;;;17.60
10058;BMP180;5068;51.286;7.518;2022-08-19T01:19:53;99144.00;;;17.60
10058;BMP180;5068;51.286;7.518;2022-08-19T01:21:34;99146.00;;;17.60
10058;BMP180;5068;51.286;7.518;2022-08-19T01:23:10;99143.00;;;17.60
10058;BMP180;5068;51.286;7.518;2022-08-19T01:24:43;99136.00;;;17.60
10058;BMP180;5068;51.286;7.518;2022-08-19T01:26:24;99133.00;;;17.60
10058;BMP180;5068;51.286;7.518;2022-08-19T01:27:58;99134.00;;;17.50
10058;BMP180;5068;51.286;7.518;2022-08-19T01:29:44;99132.00;;;17.50
10058;BMP180;5068;51.286;7.518;2022-08-19T01:31:22;99129.00;;;17.50
10058;BMP180;5068;51.286;7.518;2022-08-19T01:33:00;99139.00;;;17.40
10058;BMP180;5068;51.286;7.518;2022-08-19T01:34:33;99127.00;;;17.40
10058;BMP180;5068;51.286;7.518;2022-08-19T01:36:11;99125.00;;;17.40
10058;BMP180;5068;51.286;7.518;2022-08-19T01:37:50;99126.00;;;17.40
10058;BMP180;5068;51.286;7.518;2022-08-19T01:39:26;99126.00;;;17.30
10058;BMP180;5068;51.286;7.518;2022-08-19T01:40:58;99132.00;;;17.30
10058;BMP180;5068;51.286;7.518;2022-08-19T01:42:40;99127.00;;;17.30
10058;BMP180;5068;51.286;7.518;2022-08-19T01:44:14;99125.00;;;17.30
10058;BMP180;5068;51.286;7.518;2022-08-19T01:45:50;99122.00;;;17.30
10058;BMP180;5068;51.286;7.518;2022-08-19T01:47:25;99128.00;;;17.30
10058;BMP180;5068;51.286;7.518;2022-08-19T01:48:58;99130.00;;;17.30
10058;BMP180;5068;51.286;7.518;2022-08-19T01:50:34;99128.00;;;17.30
10058;BMP180;5068;51.286;7.518;2022-08-19T01:52:08;99129.00;;;17.30
10058;BMP180;5068;51.286;7.518;2022-08-19T01:53:42;99118.00;;;17.20
10058;BMP180;5068;51.286;7.518;2022-08-19T01:55:20;99113.00;;;17.20
10058;BMP180;5068;51.286;7.518;2022-08-19T01:57:01;99112.00;;;17.20
10058;BMP180;5068;51.286;7.518;2022-08-19T01:58:47;99111.00;;;17.20
10058;BMP180;5068;51.286;7.518;2022-08-19T02:00:26;99110.00;;;17.20
10058;BMP180;5068;51.286;7.518;2022-08-19T02:02:01;99108.00;;;17.10
10058;BMP180;5068;51.286;7.518;2022-08-19T02:03:37;99107.00;;;17.10
10058;BMP180;5068;51.286;7.518;2022-08-19T02:05:13;99112.00;;;17.10
10058;BMP180;5068;51.286;7.518;2022-08-19T02:06:46;99112.00;;;17.10
10058;BMP180;5068;51.286;7.518;2022-08-19T02:08:20;99107.00;;;17.10
10058;BMP180;5068;51.286;7.518;2022-08-19T02:09:53;99108.00;;;17.10
10058;BMP180;5068;51.286;7.518;2022-08-19T02:11:32;99116.00;;;17.10
10058;BMP180;5068;51.286;7.518;2022-08-19T02:13:07;99107.00;;;17.10
10058;BMP180;5068;51.286;7.518;2022-08-19T02:14:42;99119.00;;;17.10
10058;BMP180;5068;51.286;7.518;2022-08-19T02:16:17;99121.00;;;17.10
10058;BMP180;5068;51.286;7.518;2022-08-19T02:17:51;99122.00;;;17.10
10058;BMP180;5068;51.286;7.518;2022-08-19T02:19:24;99119.00;;;17.10
10058;BMP180;5068;51.286;7.518;2022-08-19T02:20:58;99118.00;;;17.10
10058;BMP180;5068;51.286;7.518;2022-08-19T02:22:31;99117.00;;;17.10
10058;BMP180;5068;51.286;7.518;2022-08-19T02:24:05;99125.00;;;17.10
10058;BMP180;5068;51.286;7.518;2022-08-19T02:25:39;99118.00;;;17.10
10058;BMP180;5068;51.286;7.518;2022-08-19T02:27:14;99118.00;;;17.10
10058;BMP180;5068;51.286;7.518;2022-08-19T02:28:48;99117.00;;;17.10
10058;BMP180;5068;51.286;7.518;2022-08-19T02:30:22;99104.00;;;17.10
10058;BMP180;5068;51.286;7.518;2022-08-19T02:31:56;99110.00;;;17.10
10058;BMP180;5068;51.286;7.518;2022-08-19T02:33:30;99102.00;;;17.00
10058;BMP180;5068;51.286;7.518;2022-08-19T02:35:04;99104.00;;;17.00
10058;BMP180;5068;51.286;7.518;2022-08-19T02:36:44;99106.00;;;17.00
10058;BMP180;5068;51.286;7.518;2022-08-19T02:38:23;99096.00;;;17.00
10058;BMP180;5068;51.286;7.518;2022-08-19T02:39:59;99106.00;;;17.00
10058;BMP180;5068;51.286;7.518;2022-08-19T02:41:33;99113.00;;;17.10
10058;BMP180;5068;51.286;7.518;2022-08-19T02:43:09;99113.00;;;17.10
10058;BMP180;5068;51.286;7.518;2022-08-19T02:44:41;99118.00;;;17.10
10058;BMP180;5068;51.286;7.518;2022-08-19T02:46:19;99127.00;;;17.10
10058;BMP180;5068;51.286;7.518;2022-08-19T02:47:53;99124.00;;;17.00
10058;BMP180;5068;51.286;7.518;2022-08-19T02:49:25;99124.00;;;17.00
10058;BMP180;5068;51.286;7.518;2022-08-19T02:50:59;99126.00;;;17.00
10058;BMP180;5068;51.286;7.518;2022-08-19T02:52:32;99125.00;;;17.00
10058;BMP180;5068;51.286;7.518;2022-08-19T02:54:09;99120.00;;;17.00
10058;BMP180;5068;51.286;7.518;2022-08-19T02:55:45;99119.00;;;16.90
10058;BMP180;5068;51.286;7.518;2022-08-19T02:57:18;99114.00;;;16.90
10058;BMP180;5068;51.286;7.518;2022-08-19T02:58:53;99112.00;;;16.90
10058;BMP180;5068;51.286;7.518;2022-08-19T03:00:49;99105.00;;;16.90
10058;BMP180;5068;51.286;7.518;2022-08-19T03:02:23;99115.00;;;16.90
10058;BMP180;5068;51.286;7.518;2022-08-19T03:04:01;99117.00;;;16.90
10058;BMP180;5068;51.286;7.518;2022-08-19T03:05:35;99104.00;;;16.90
10058;BMP180;5068;51.286;7.518;2022-08-19T03:07:27;99118.00;;;16.90
10058;BMP180;5068;51.286;7.518;2022-08-19T03:09:00;99109.00;;;16.90
10058;BMP180;5068;51.286;7.518;2022-08-19T03:10:41;99098.00;;;16.80
10058;BMP180;5068;51.286;7.518;2022-08-19T03:12:16;99099.00;;;16.80
10058;BMP180;5068;51.286;7.518;2022-08-19T03:13:51;99099.00;;;16.80
10058;BMP180;5068;51.286;7.518;2022-08-19T03:15:26;99092.00;;;16.80
10058;BMP180;5068;51.286;7.518;2022-08-19T03:17:00;99105.00;;;16.80
10058;BMP180;5068;51.286;7.518;2022-08-19T03:18:35;99107.00;;;16.80
10058;BMP180;5068;51.286;7.518;2022-08-19T03:20:10;99111.00;;;16.90
10058;BMP180;5068;51.286;7.518;2022-08-19T03:21:45;99113.00;;;16.90
10058;BMP180;5068;51.286;7.518;2022-08-19T03:23:19;99117.00;;;16.90
10058;BMP180;5068;51.286;7.518;2022-08-19T03:24:52;99112.00;;;16.90
10058;BMP180;5068;51.286;7.518;2022-08-19T03:26:26;99116.00;;;16.90
10058;BMP180;5068;51.286;7.518;2022-08-19T03:28:01;99109.00;;;16.80
10058;BMP180;5068;51.286;7.518;2022-08-19T03:29:38;99115.00;;;16.90
10058;BMP180;5068;51.286;7.518;2022-08-19T03:31:17;99121.00;;;16.80
10058;BMP180;5068;51.286;7.518;2022-08-19T03:33:11;99119.00;;;16.80
10058;BMP180;5068;51.286;7.518;2022-08-19T03:34:49;99128.00;;;16.80
10058;BMP180;5068;51.286;7.518;2022-08-19T03:36:26;99119.00;;;16.80
10058;BMP180;5068;51.286;7.518;2022-08-19T03:38:00;99119.00;;;16.80
10058;BMP180;5068;51.286;7.518;2022-08-19T03:39:35;99118.00;;;16.80
10058;BMP180;5068;51.286;7.518;2022-08-19T03:41:13;99118.00;;;16.90
10058;BMP180;5068;51.286;7.518;2022-08-19T03:42:46;99107.00;;;16.90
10058;BMP180;5068;51.286;7.518;2022-08-19T03:44:22;99113.00;;;16.90
10058;BMP180;5068;51.286;7.518;2022-08-19T03:46:08;99116.00;;;16.90
10058;BMP180;5068;51.286;7.518;2022-08-19T03:47:42;99120.00;;;16.90
10058;BMP180;5068;51.286;7.518;2022-08-19T03:49:16;99124.00;;;16.90
10058;BMP180;5068;51.286;7.518;2022-08-19T03:50:50;99135.00;;;16.90
10058;BMP180;5068;51.286;7.518;2022-08-19T03:52:26;99129.00;;;16.90
10058;BMP180;5068;51.286;7.518;2022-08-19T03:54:03;99138.00;;;16.90
10058;BMP180;5068;51.286;7.518;2022-08-19T03:55:40;99137.00;;;16.80
10058;BMP180;5068;51.286;7.518;2022-08-19T03:57:13;99137.00;;;16.80
10058;BMP180;5068;51.286;7.518;2022-08-19T03:58:48;99145.00;;;16.80
10058;BMP180;5068;51.286;7.518;2022-08-19T04:00:21;99131.00;;;16.80
10058;BMP180;5068;51.286;7.518;2022-08-19T04:01:59;99138.00;;;16.80
10058;BMP180;5068;51.286;7.518;2022-08-19T04:03:33;99137.00;;;16.80
10058;BMP180;5068;51.286;7.518;2022-08-19T04:05:08;99133.00;;;16.70
10058;BMP180;5068;51.286;7.518;2022-08-19T04:06:43;99134.00;;;16.70
10058;BMP180;5068;51.286;7.518;2022-08-19T04:08:16;99132.00;;;16.80
10058;BMP180;5068;51.286;7.518;2022-08-19T04:09:50;99133.00;;;16.80
10058;BMP180;5068;51.286;7.518;2022-08-19T04:11:29;99125.00;;;16.80
10058;BMP180;5068;51.286;7.518;2022-08-19T04:13:16;99131.00;;;16.70
10058;BMP180;5068;51.286;7.518;2022-08-19T04:14:50;99125.00;;;16.70
10058;BMP180;5068;51.286;7.518;2022-08-19T04:16:25;99131.00;;;16.70
10058;BMP180;5068;51.286;7.518;2022-08-19T04:18:09;99127.00;;;16.70
10058;BMP180;5068;51.286;7.518;2022-08-19T04:19:42;99128.00;;;16.60
10058;BMP180;5068;51.286;7.518;2022-08-19T04:21:20;99128.00;;;16.60
10058;BMP180;5068;51.286;7.518;2022-08-19T04:22:53;99131.00;;;16.60
10058;BMP180;5068;51.286;7.518;2022-08-19T04:24:27;99135.00;;;16.60
10058;BMP180;5068;51.286;7.518;2022-08-19T04:26:00;99134.00;;;16.60
10058;BMP180;5068;51.286;7.518;2022-08-19T04:27:35;99142.00;;;16.60
10058;BMP180;5068;51.286;7.518;2022-08-19T04:29:13;99139.00;;;16.70
10058;BMP180;5068;51.286;7.518;2022-08-19T04:30:49;99145.00;;;16.70
10058;BMP180;5068;51.286;7.518;2022-08-19T04:32:23;99156.00;;;16.70
10058;BMP180;5068;51.286;7.518;2022-08-19T04:34:00;99146.00;;;16.70
10058;BMP180;5068;51.286;7.518;2022-08-19T04:35:39;99143.00;;;16.70
10058;BMP180;5068;51.286;7.518;2022-08-19T04:37:12;99149.00;;;16.70
10058;BMP180;5068;51.286;7.518;2022-08-19T04:38:46;99135.00;;;16.70
10058;BMP180;5068;51.286;7.518;2022-08-19T04:40:19;99145.00;;;16.70
10058;BMP180;5068;51.286;7.518;2022-08-19T04:42:10;99142.00;;;16.60
10058;BMP180;5068;51.286;7.518;2022-08-19T04:44:03;99136.00;;;16.60
10058;BMP180;5068;51.286;7.518;2022-08-19T04:45:36;99137.00;;;16.60
10058;BMP180;5068;51.286;7.518;2022-08-19T04:47:15;99137.00;;;16.60
10058;BMP180;5068;51.286;7.518;2022-08-19T04:49:10;99140.00;;;16.50
10058;BMP180;5068;51.286;7.518;2022-08-19T04:50:45;99150.00;;;16.50
10058;BMP180;5068;51.286;7.518;2022-08-19T04:52:20;99144.00;;;16.50
10058;BMP180;5068;51.286;7.518;2022-08-19T04:53:54;99147.00;;;16.50
10058;BMP180;5068;51.286;7.518;2022-08-19T04:55:27;99148.00;;;16.50
10058;BMP180;5068;51.286;7.518;2022-08-19T04:57:01;99144.00;;;16.50
10058;BMP180;5068;51.286;7.518;2022-08-19T04:58:37;99136.00;;;16.50
10058;BMP180;5068;51.286;7.518;2022-08-19T05:00:12;99142.00;;;16.50
10058;BMP180;5068;51.286;7.518;2022-08-19T05:01:46;99143.00;;;16.50
10058;BMP180;5068;51.286;7.518;2022-08-19T05:03:22;99142.00;;;16.50
10058;BMP180;5068;51.286;7.518;2022-08-19T05:05:04;99141.00;;;16.50
10058;BMP180;5068;51.286;7.518;2022-08-19T05:06:39;99146.00;;;16.50
10058;BMP180;5068;51.286;7.518;2022-08-19T05:08:14;99145.00;;;16.50
10058;BMP180;5068;51.286;7.518;2022-08-19T05:10:04;99149.00;;;16.50
10058;BMP180;5068;51.286;7.518;2022-08-19T05:11:38;99147.00;;;16.50
10058;BMP180;5068;51.286;7.518;2022-08-19T05:13:12;99156.00;;;16.50
10058;BMP180;5068;51.286;7.518;2022-08-19T05:14:47;99150.00;;;16.50
10058;BMP180;5068;51.286;7.518;2022-08-19T05:16:23;99159.00;;;16.50
10058;BMP180;5068;51.286;7.518;2022-08-19T05:17:57;99160.00;;;16.50
10058;BMP180;5068;51.286;7.518;2022-08-19T05:19:49;99165.00;;;16.50
10058;BMP180;5068;51.286;7.518;2022-08-19T05:21:44;99169.00;;;16.50
10058;BMP180;5068;51.286;7.518;2022-08-19T05:23:36;99161.00;;;16.50
10058;BMP180;5068;51.286;7.518;2022-08-19T05:25:14;99173.00;;;16.50
10058;BMP180;5068;51.286;7.518;2022-08-19T05:26:50;99174.00;;;16.50
10058;BMP180;5068;51.286;7.518;2022-08-19T05:28:24;99180.00;;;16.60
10058;BMP180;5068;51.286;7.518;2022-08-19T05:29:57;99170.00;;;16.60
10058;BMP180;5068;51.286;7.518;2022-08-19T05:31:30;99172.00;;;16.60
10058;BMP180;5068;51.286;7.518;2022-08-19T05:33:04;99184.00;;;16.60
10058;BMP180;5068;51.286;7.518;2022-08-19T05:34:38;99168.00;;;16.60
10058;BMP180;5068;51.286;7.518;2022-08-19T05:36:12;99169.00;;;16.60
10058;BMP180;5068;51.286;7.518;2022-08-19T05:37:47;99174.00;;;16.60
10058;BMP180;5068;51.286;7.518;2022-08-19T05:39:30;99170.00;;;16.70
10058;BMP180;5068;51.286;7.518;2022-08-19T05:41:08;99157.00;;;16.70
10058;BMP180;5068;51.286;7.518;2022-08-19T05:42:41;99166.00;;;16.70
10058;BMP180;5068;51.286;7.518;2022-08-19T05:44:27;99167.00;;;16.70
10058;BMP180;5068;51.286;7.518;2022-08-19T05:46:02;99162.00;;;16.70
10058;BMP180;5068;51.286;7.518;2022-08-19T05:47:36;99165.00;;;16.70
10058;BMP180;5068;51.286;7.518;2022-08-19T05:49:15;99164.00;;;16.70
10058;BMP180;5068;51.286;7.518;2022-08-19T05:50:48;99162.00;;;16.80
10058;BMP180;5068;51.286;7.518;2022-08-19T05:52:23;99174.00;;;16.80
10058;BMP180;5068;51.286;7.518;2022-08-19T05:53:58;99167.00;;;16.80
10058;BMP180;5068;51.286;7.518;2022-08-19T05:55:32;99166.00;;;16.80
10058;BMP180;5068;51.286;7.518;2022-08-19T05:57:07;99162.00;;;16.90
10058;BMP180;5068;51.286;7.518;2022-08-19T05:58:45;99154.00;;;16.90
10058;BMP180;5068;51.286;7.518;2022-08-19T06:00:17;99164.00;;;16.90
10058;BMP180;5068;51.286;7.518;2022-08-19T06:01:56;99162.00;;;16.90
10058;BMP180;5068;51.286;7.518;2022-08-19T06:03:30;99165.00;;;16.90
10058;BMP180;5068;51.286;7.518;2022-08-19T06:05:06;99169.00;;;16.90
10058;BMP180;5068;51.286;7.518;2022-08-19T06:06:40;99162.00;;;16.90
10058;BMP180;5068;51.286;7.518;2022-08-19T06:08:14;99159.00;;;16.90
10058;BMP180;5068;51.286;7.518;2022-08-19T06:09:51;99157.00;;;17.00
10058;BMP180;5068;51.286;7.518;2022-08-19T06:11:35;99160.00;;;17.00
10058;BMP180;5068;51.286;7.518;2022-08-19T06:13:10;99159.00;;;17.00
10058;BMP180;5068;51.286;7.518;2022-08-19T06:14:43;99165.00;;;17.00
10058;BMP180;5068;51.286;7.518;2022-08-19T06:16:20;99177.00;;;17.10
10058;BMP180;5068;51.286;7.518;2022-08-19T06:17:54;99166.00;;;17.10
10058;BMP180;5068;51.286;7.518;2022-08-19T06:19:29;99169.00;;;17.10
10058;BMP180;5068;51.286;7.518;2022-08-19T06:21:03;99165.00;;;17.20
10058;BMP180;5068;51.286;7.518;2022-08-19T06:22:38;99170.00;;;17.20
10058;BMP180;5068;51.286;7.518;2022-08-19T06:24:15;99169.00;;;17.20
10058;BMP180;5068;51.286;7.518;2022-08-19T06:25:50;99162.00;;;17.20
10058;BMP180;5068;51.286;7.518;2022-08-19T06:27:24;99163.00;;;17.30
10058;BMP180;5068;51.286;7.518;2022-08-19T06:28:58;99158.00;;;17.30
10058;BMP180;5068;51.286;7.518;2022-08-19T06:30:31;99163.00;;;17.30
10058;BMP180;5068;51.286;7.518;2022-08-19T06:32:05;99163.00;;;17.40
10058;BMP180;5068;51.286;7.518;2022-08-19T06:33:39;99167.00;;;17.40
10058;BMP180;5068;51.286;7.518;2022-08-19T06:35:12;99161.00;;;17.50
10058;BMP180;5068;51.286;7.518;2022-08-19T06:36:51;99155.00;;;17.50
10058;BMP180;5068;51.286;7.518;2022-08-19T06:38:25;99161.00;;;17.60
10058;BMP180;5068;51.286;7.518;2022-08-19T06:39:57;99158.00;;;17.60
10058;BMP180;5068;51.286;7.518;2022-08-19T06:41:36;99157.00;;;17.60
10058;BMP180;5068;51.286;7.518;2022-08-19T06:43:21;99160.00;;;17.70
10058;BMP180;5068;51.286;7.518;2022-08-19T06:45:00;99167.00;;;17.80
10058;BMP180;5068;51.286;7.518;2022-08-19T06:46:42;99165.00;;;17.80
10058;BMP180;5068;51.286;7.518;2022-08-19T06:48:24;99170.00;;;17.90
10058;BMP180;5068;51.286;7.518;2022-08-19T06:50:00;99170.00;;;17.90
10058;BMP180;5068;51.286;7.518;2022-08-19T06:51:37;99167.00;;;17.90
10058;BMP180;5068;51.286;7.518;2022-08-19T06:53:15;99164.00;;;18.00
10058;BMP180;5068;51.286;7.518;2022-08-19T06:54:50;99156.00;;;18.00
10058;BMP180;5068;51.286;7.518;2022-08-19T06:56:31;99160.00;;;18.10
10058;BMP180;5068;51.286;7.518;2022-08-19T06:58:06;99156.00;;;18.10
10058;BMP180;5068;51.286;7.518;2022-08-19T06:59:41;99152.00;;;18.20
10058;BMP180;5068;51.286;7.518;2022-08-19T07:01:14;99156.00;;;18.20
10058;BMP180;5068;51.286;7.518;2022-08-19T07:02:48;99163.00;;;18.30
10058;BMP180;5068;51.286;7.518;2022-08-19T07:04:31;99167.00;;;18.30
10058;BMP180;5068;51.286;7.518;2022-08-19T07:06:08;99168.00;;;18.40
10058;BMP180;5068;51.286;7.518;2022-08-19T07:08:02;99171.00;;;18.50
10058;BMP180;5068;51.286;7.518;2022-08-19T07:09:43;99163.00;;;18.60
10058;BMP180;5068;51.286;7.518;2022-08-19T07:11:28;99168.00;;;18.70
10058;BMP180;5068;51.286;7.518;2022-08-19T07:13:06;99168.00;;;18.80
10058;BMP180;5068;51.286;7.518;2022-08-19T07:14:40;99171.00;;;18.80
10058;BMP180;5068;51.286;7.518;2022-08-19T07:16:16;99168.00;;;18.90
10058;BMP180;5068;51.286;7.518;2022-08-19T07:18:00;99160.00;;;19.00
10058;BMP180;5068;51.286;7.518;2022-08-19T07:19:36;99161.00;;;19.10
10058;BMP180;5068;51.286;7.518;2022-08-19T07:21:14;99166.00;;;19.20
10058;BMP180;5068;51.286;7.518;2022-08-19T07:22:48;99163.00;;;19.30
10058;BMP180;5068;51.286;7.518;2022-08-19T07:24:25;99171.00;;;19.40
10058;BMP180;5068;51.286;7.518;2022-08-19T07:26:06;99163.00;;;19.50
10058;BMP180;5068;51.286;7.518;2022-08-19T07:27:40;99173.00;;;19.60
10058;BMP180;5068;51.286;7.518;2022-08-19T07:29:20;99162.00;;;19.70
10058;BMP180;5068;51.286;7.518;2022-08-19T07:30:57;99176.00;;;19.80
10058;BMP180;5068;51.286;7.518;2022-08-19T07:32:30;99172.00;;;19.90
10058;BMP180;5068;51.286;7.518;2022-08-19T07:34:06;99178.00;;;20.00
10058;BMP180;5068;51.286;7.518;2022-08-19T07:35:40;99168.00;;;20.10
10058;BMP180;5068;51.286;7.518;2022-08-19T07:37:13;99178.00;;;20.20
10058;BMP180;5068;51.286;7.518;2022-08-19T07:38:49;99171.00;;;20.30
10058;BMP180;5068;51.286;7.518;2022-08-19T07:40:23;99181.00;;;20.40
10058;BMP180;5068;51.286;7.518;2022-08-19T07:41:59;99174.00;;;20.50
10058;BMP180;5068;51.286;7.518;2022-08-19T07:43:33;99176.00;;;20.70
10058;BMP180;5068;51.286;7.518;2022-08-19T07:45:09;99180.00;;;20.80
10058;BMP180;5068;51.286;7.518;2022-08-19T07:46:46;99181.00;;;20.90
10058;BMP180;5068;51.286;7.518;2022-08-19T07:48:26;99174.00;;;21.00
10058;BMP180;5068;51.286;7.518;2022-08-19T07:50:00;99180.00;;;21.10
10058;BMP180;5068;51.286;7.518;2022-08-19T07:51:39;99186.00;;;21.20
10058;BMP180;5068;51.286;7.518;2022-08-19T07:53:13;99184.00;;;21.30
10058;BMP180;5068;51.286;7.518;2022-08-19T07:54:47;99192.00;;;21.40
10058;BMP180;5068;51.286;7.518;2022-08-19T07:56:22;99191.00;;;21.50
10058;BMP180;5068;51.286;7.518;2022-08-19T07:57:55;99192.00;;;21.70
10058;BMP180;5068;51.286;7.518;2022-08-19T07:59:29;99197.00;;;21.80
10058;BMP180;5068;51.286;7.518;2022-08-19T08:01:06;99189.00;;;21.90
10058;BMP180;5068;51.286;7.518;2022-08-19T08:02:40;99190.00;;;22.00
10058;BMP180;5068;51.286;7.518;2022-08-19T08:04:14;99197.00;;;22.10
10058;BMP180;5068;51.286;7.518;2022-08-19T08:06:06;99186.00;;;22.20
10058;BMP180;5068;51.286;7.518;2022-08-19T08:07:59;99190.00;;;22.40
10058;BMP180;5068;51.286;7.518;2022-08-19T08:09:51;99189.00;;;22.50
10058;BMP180;5068;51.286;7.518;2022-08-19T08:11:30;99202.00;;;22.60
10058;BMP180;5068;51.286;7.518;2022-08-19T08:13:04;99195.00;;;22.70
10058;BMP180;5068;51.286;7.518;2022-08-19T08:14:46;99196.00;;;22.90
10058;BMP180;5068;51.286;7.518;2022-08-19T08:16:28;99195.00;;;23.00
10058;BMP180;5068;51.286;7.518;2022-08-19T08:18:03;99184.00;;;23.10
10058;BMP180;5068;51.286;7.518;2022-08-19T08:19:39;99188.00;;;23.30
10058;BMP180;5068;51.286;7.518;2022-08-19T08:21:13;99190.00;;;23.40
10058;BMP180;5068;51.286;7.518;2022-08-19T08:22:47;99189.00;;;23.50
10058;BMP180;5068;51.286;7.518;2022-08-19T08:24:38;99187.00;;;23.70
10058;BMP180;5068;51.286;7.518;2022-08-19T08:26:12;99199.00;;;23.80
10058;BMP180;5068;51.286;7.518;2022-08-19T08:27:47;99198.00;;;23.90
10058;BMP180;5068;51.286;7.518;2022-08-19T08:29:27;99191.00;;;24.00
10058;BMP180;5068;51.286;7.518;2022-08-19T08:31:06;99194.00;;;24.10
10058;BMP180;5068;51.286;7.518;2022-08-19T08:32:42;99187.00;;;24.20
10058;BMP180;5068;51.286;7.518;2022-08-19T08:34:16;99198.00;;;24.20
10058;BMP180;5068;51.286;7.518;2022-08-19T08:35:49;99203.00;;;24.30
10058;BMP180;5068;51.286;7.518;2022-08-19T08:37:25;99205.00;;;24.40
10058;BMP180;5068;51.286;7.518;2022-08-19T08:38:59;99195.00;;;24.50
10058;BMP180;5068;51.286;7.518;2022-08-19T08:40:43;99210.00;;;24.60
10058;BMP180;5068;51.286;7.518;2022-08-19T08:42:24;99205.00;;;24.70
10058;BMP180;5068;51.286;7.518;2022-08-19T08:44:02;99203.00;;;24.70
10058;BMP180;5068;51.286;7.518;2022-08-19T08:45:47;99208.00;;;24.80
10058;BMP180;5068;51.286;7.518;2022-08-19T08:47:30;99207.00;;;24.90
10058;BMP180;5068;51.286;7.518;2022-08-19T08:49:28;99205.00;;;25.00
10058;BMP180;5068;51.286;7.518;2022-08-19T08:51:09;99202.00;;;25.00
10058;BMP180;5068;51.286;7.518;2022-08-19T08:52:47;99209.00;;;25.10
10058;BMP180;5068;51.286;7.518;2022-08-19T08:54:25;99200.00;;;25.10
10058;BMP180;5068;51.286;7.518;2022-08-19T08:56:03;99202.00;;;25.20
10058;BMP180;5068;51.286;7.518;2022-08-19T08:57:46;99201.00;;;25.30
10058;BMP180;5068;51.286;7.518;2022-08-19T08:59:28;99192.00;;;25.40
10058;BMP180;5068;51.286;7.518;2022-08-19T09:01:04;99210.00;;;25.50
10058;BMP180;5068;51.286;7.518;2022-08-19T09:02:38;99209.00;;;25.60
10058;BMP180;5068;51.286;7.518;2022-08-19T09:04:16;99202.00;;;25.70
10058;BMP180;5068;51.286;7.518;2022-08-19T09:05:59;99209.00;;;25.80
10058;BMP180;5068;51.286;7.518;2022-08-19T09:07:46;99207.00;;;25.90
10058;BMP180;5068;51.286;7.518;2022-08-19T09:09:30;99206.00;;;25.90
10058;BMP180;5068;51.286;7.518;2022-08-19T09:11:10;99214.00;;;26.00
10058;BMP180;5068;51.286;7.518;2022-08-19T09:13:24;99225.00;;;26.10
10058;BMP180;5068;51.286;7.518;2022-08-19T09:15:12;99222.00;;;26.20
10058;BMP180;5068;51.286;7.518;2022-08-19T09:16:46;99213.00;;;26.20
10058;BMP180;5068;51.286;7.518;2022-08-19T09:18:21;99224.00;;;26.30
10058;BMP180;5068;51.286;7.518;2022-08-19T09:20:00;99229.00;;;26.30
10058;BMP180;5068;51.286;7.518;2022-08-19T09:21:37;99217.00;;;26.40
10058;BMP180;5068;51.286;7.518;2022-08-19T09:23:11;99203.00;;;26.50
10058;BMP180;5068;51.286;7.518;2022-08-19T09:24:45;99206.00;;;26.60
10058;BMP180;5068;51.286;7.518;2022-08-19T09:26:22;99209.00;;;26.70
10058;BMP180;5068;51.286;7.518;2022-08-19T09:28:15;99210.00;;;26.80